Raymond, Georgia
Current Conditions -  °F | °C
As of 6:15 AM on Thursday 23 Oct 2014 (Local Time) from KCCO Reporting Station
Clear Clear  
Wind Chill: 41°   Ceiling: Unl
Heat Index: 45°   Visibility: 10mi
Dew Point: 43°   Wind: 7mph
Humidity: 95%   Direction: 20°NNE
Pressure: 30.1"   Gusts: NA
Location:  33.3877°N, 84.8596°W
Report Text: KCCO 231015Z AUTO 02006KT 10SM CLR 07/06 A3010 RMK AO2 T00700062
Loading
Personal Weather Stations






























Interactive Weather Map New forecast layout! Learn more

10-Day Weather Forecast

Advertisements
Track Severe Weather on mobile